Time;durP1;ratioP1;P1;durP2;ratioP2;P2;SDS_P1;SDS_P2;PMS_P1;PMS_P2;Temp;Humidity;BMP_temperature;BMP_pressure;BME280_temperature;BME280_humidity;BME280_pressure;Samples;Min_cycle;Max_cycle;Signal;HPM_P1;HPM_P2
2022/05/28 00:01:52;;;;;;;1.88;1.83;;;;;;;;;;5072200;28;20183;-69
2022/05/28 00:04:18;;;;;;;2.03;1.92;;;21.70;73.60;;;;;;5068537;28;20801;-69
2022/05/28 00:06:45;;;;;;;2.17;2.17;;;21.70;74.00;;;;;;5066365;28;20191;-69
2022/05/28 00:09:11;;;;;;;2.17;1.98;;;21.70;74.30;;;;;;5055782;28;20185;-69
2022/05/28 00:11:39;;;;;;;2.35;2.08;;;21.60;73.90;;;;;;5068019;28;20321;-69
2022/05/28 00:14:06;;;;;;;2.50;1.70;;;21.60;74.10;;;;;;5069910;28;20195;-68
2022/05/28 00:16:32;;;;;;;3.40;1.98;;;21.60;74.50;;;;;;5065387;28;20179;-68
2022/05/28 00:18:58;;;;;;;3.15;2.13;;;;;;;;;;5061948;28;20189;-69
2022/05/28 00:21:24;;;;;;;2.13;2.03;;;21.50;74.50;;;;;;5066323;28;20303;-69
2022/05/28 00:23:51;;;;;;;2.42;2.17;;;21.50;75.50;;;;;;5063851;28;20182;-69
2022/05/28 00:26:17;;;;;;;4.28;2.45;;;21.40;75.60;;;;;;5067760;28;20184;-69
2022/05/28 00:28:43;;;;;;;2.60;2.42;;;21.40;74.90;;;;;;5072156;28;20263;-69
2022/05/28 00:31:09;;;;;;;2.53;2.30;;;21.30;75.40;;;;;;5069595;28;20217;-68
2022/05/28 00:33:35;;;;;;;2.35;2.15;;;21.30;75.20;;;;;;5068332;28;20194;-69
2022/05/28 00:36:06;;;;;;;2.40;2.30;;;21.20;76.00;;;;;;5070559;28;20187;-68
2022/05/28 00:38:32;;;;;;;1.88;1.88;;;21.20;76.80;;;;;;5070176;28;20218;-68
2022/05/28 00:40:59;;;;;;;2.88;2.67;;;21.20;76.60;;;;;;5066263;28;20238;-67
2022/05/28 00:43:26;;;;;;;5.90;2.85;;;21.10;76.80;;;;;;5070028;28;20256;-69
2022/05/28 00:45:59;;;;;;;3.53;2.78;;;21.10;76.80;;;;;;5065878;28;20186;-67
2022/05/28 00:48:30;;;;;;;2.90;2.50;;;21.00;76.80;;;;;;5063819;28;20193;-68
2022/05/28 00:51:01;;;;;;;2.70;2.60;;;20.90;76.60;;;;;;5066004;28;20191;-68
2022/05/28 00:53:27;;;;;;;2.80;2.50;;;20.90;76.20;;;;;;5067403;28;20552;-68
2022/05/28 00:55:54;;;;;;;2.03;1.92;;;20.90;75.60;;;;;;5067963;28;20244;-68
2022/05/28 00:58:20;;;;;;;5.00;2.63;;;20.80;75.50;;;;;;5067980;28;20162;-68
2022/05/28 01:00:45;;;;;;;4.88;2.67;;;20.80;75.60;;;;;;5069352;28;20408;-68
2022/05/28 01:03:32;;;;;;;3.15;2.47;;;20.80;76.00;;;;;;5063716;28;20183;-68
2022/05/28 01:06:24;;;;;;;3.17;2.50;;;20.80;76.50;;;;;;5063501;28;20758;-68
2022/05/28 01:08:56;;;;;;;2.55;2.40;;;20.80;76.50;;;;;;5067633;28;20690;-67
2022/05/28 01:11:43;;;;;;;2.28;2.17;;;20.80;77.00;;;;;;5068075;28;20191;-67
2022/05/28 01:14:28;;;;;;;2.05;1.63;;;20.80;77.10;;;;;;5069165;28;20201;-68
2022/05/28 01:17:22;;;;;;;2.03;1.92;;;20.80;76.80;;;;;;5065223;28;20197;-69
2022/05/28 01:19:55;;;;;;;2.22;1.65;;;20.70;76.30;;;;;;5067509;28;20283;-68
2022/05/28 01:22:57;;;;;;;2.42;1.90;;;20.70;76.90;;;;;;5061524;28;20791;-69
2022/05/28 01:25:40;;;;;;;2.90;1.85;;;20.60;76.90;;;;;;5066181;28;20182;-69
2022/05/28 01:28:09;;;;;;;2.05;1.90;;;20.50;77.60;;;;;;5066895;28;20575;-67
2022/05/28 01:30:39;;;;;;;1.80;1.70;;;20.50;77.20;;;;;;5070044;28;20301;-68
2022/05/28 01:33:08;;;;;;;2.95;2.10;;;20.40;77.50;;;;;;5064513;28;20265;-68
2022/05/28 01:35:35;;;;;;;2.20;2.10;;;20.30;77.60;;;;;;5065803;28;20551;-68
2022/05/28 01:38:03;;;;;;;2.22;2.22;;;20.30;78.90;;;;;;5065961;28;20205;-69
2022/05/28 01:40:29;;;;;;;3.50;2.13;;;20.10;78.80;;;;;;5064698;28;20776;-67
2022/05/28 01:42:58;;;;;;;2.13;1.98;;;20.00;78.60;;;;;;5065871;28;20183;-67
2022/05/28 01:45:28;;;;;;;2.33;2.22;;;20.00;78.40;;;;;;5062277;28;21125;-68
2022/05/28 01:47:57;;;;;;;1.95;1.92;;;20.00;78.80;;;;;;5064604;28;20874;-69
2022/05/28 01:50:25;;;;;;;3.25;2.45;;;19.90;78.70;;;;;;5070572;28;20187;-68
2022/05/28 01:52:52;;;;;;;2.30;1.90;;;20.00;78.70;;;;;;5065172;28;20186;-68
2022/05/28 01:55:21;;;;;;;2.28;2.17;;;20.00;78.60;;;;;;5068165;28;20178;-69
2022/05/28 01:57:46;;;;;;;4.38;2.60;;;20.00;78.60;;;;;;5068496;28;20182;-69
2022/05/28 02:00:13;;;;;;;2.47;2.38;;;20.00;78.70;;;;;;5064946;28;20225;-68
2022/05/28 02:02:39;;;;;;;3.20;2.95;;;20.10;78.10;;;;;;5064538;28;20791;-67
2022/05/28 02:05:05;;;;;;;2.60;2.40;;;20.10;78.40;;;;;;5068586;28;20187;-67
2022/05/28 02:07:31;;;;;;;2.95;2.63;;;20.10;78.70;;;;;;5064883;28;20248;-68
2022/05/28 02:10:05;;;;;;;5.28;2.83;;;20.10;78.50;;;;;;5065816;28;20924;-68
2022/05/28 02:12:48;;;;;;;2.97;2.55;;;20.10;78.90;;;;;;5068867;28;20186;-68
2022/05/28 02:15:49;;;;;;;2.60;2.50;;;20.10;78.50;;;;;;5064206;28;20293;-68
2022/05/28 02:18:15;;;;;;;2.95;2.47;;;;;;;;;;5063197;28;20185;-68
2022/05/28 02:20:41;;;;;;;2.53;2.42;;;;;;;;;;5061623;28;20211;-68
2022/05/28 02:23:32;;;;;;;2.03;1.88;;;20.00;78.00;;;;;;5064892;28;20183;-68
2022/05/28 02:26:09;;;;;;;4.20;2.42;;;20.10;77.60;;;;;;5066441;28;20733;-68
2022/05/28 02:28:36;;;;;;;2.95;2.00;;;20.10;77.30;;;;;;5067878;28;20248;-68
2022/05/28 02:31:12;;;;;;;2.63;1.95;;;20.10;77.00;;;;;;5063283;28;20187;-68
2022/05/28 02:33:38;;;;;;;4.70;1.88;;;20.10;77.10;;;;;;5067314;28;20527;-68
2022/05/28 02:36:04;;;;;;;2.70;1.90;;;20.20;76.80;;;;;;5062824;28;20185;-68
2022/05/28 02:38:30;;;;;;;1.90;1.80;;;20.10;76.70;;;;;;5067070;28;20179;-67
2022/05/28 02:40:56;;;;;;;1.77;1.70;;;20.20;76.30;;;;;;5065155;28;20744;-68
2022/05/28 02:43:22;;;;;;;2.38;1.60;;;20.20;76.20;;;;;;5065260;28;20190;-68
2022/05/28 02:45:48;;;;;;;2.10;2.00;;;20.20;76.10;;;;;;5066700;28;20194;-68
2022/05/28 02:48:14;;;;;;;5.53;1.85;;;20.20;76.30;;;;;;5063193;28;20190;-70
2022/05/28 02:50:40;;;;;;;1.70;1.70;;;20.20;76.10;;;;;;5063106;28;20248;-68
2022/05/28 02:53:06;;;;;;;1.98;1.92;;;20.30;75.90;;;;;;5068963;28;20182;-68
2022/05/28 02:55:32;;;;;;;1.63;1.60;;;20.30;75.60;;;;;;5070055;28;20183;-69
2022/05/28 02:57:58;;;;;;;1.85;1.75;;;20.30;75.60;;;;;;5069650;28;20235;-68
2022/05/28 03:00:24;;;;;;;2.15;1.83;;;20.30;75.50;;;;;;5065348;28;20210;-69
2022/05/28 03:02:50;;;;;;;2.67;1.80;;;;;;;;;;5070565;28;20222;-69
2022/05/28 03:05:18;;;;;;;2.47;1.60;;;20.30;75.20;;;;;;5069766;28;20190;-68
2022/05/28 03:07:44;;;;;;;4.35;1.73;;;20.40;75.10;;;;;;5069257;28;20190;-68
2022/05/28 03:10:11;;;;;;;2.15;2.05;;;20.40;75.30;;;;;;5068733;28;20704;-68
2022/05/28 03:12:38;;;;;;;3.05;1.60;;;20.40;74.90;;;;;;5064708;28;20179;-69
2022/05/28 03:15:04;;;;;;;2.92;1.80;;;20.40;74.60;;;;;;5058499;28;20256;-69
2022/05/28 03:17:30;;;;;;;1.63;1.63;;;20.40;74.80;;;;;;5065193;28;20185;-69
2022/05/28 03:19:59;;;;;;;1.75;1.65;;;;;;;;;;5066127;28;20210;-68
2022/05/28 03:22:24;;;;;;;2.35;1.90;;;20.40;75.00;;;;;;5071351;28;20177;-69
2022/05/28 03:24:50;;;;;;;1.65;1.55;;;;;;;;;;5062924;28;20179;-69
2022/05/28 03:27:16;;;;;;;1.52;1.42;;;;;;;;;;5067561;28;20174;-69
2022/05/28 03:29:42;;;;;;;1.40;1.30;;;;;;;;;;5065221;28;20179;-69
2022/05/28 03:32:08;;;;;;;2.95;1.10;;;20.60;75.00;;;;;;5062138;28;20175;-69
2022/05/28 03:34:34;;;;;;;1.10;1.10;;;;;;;;;;5069164;28;20190;-69
2022/05/28 03:37:00;;;;;;;1.55;1.55;;;;;;;;;;5068006;28;20185;-68
2022/05/28 03:39:26;;;;;;;1.67;1.17;;;20.60;74.40;;;;;;5064361;28;20967;-68
2022/05/28 03:41:52;;;;;;;2.78;1.45;;;20.70;74.40;;;;;;5061737;28;20186;-68
2022/05/28 03:44:18;;;;;;;1.67;1.67;;;;;;;;;;5068232;28;20578;-68
2022/05/28 03:46:43;;;;;;;9.25;1.80;;;20.70;74.40;;;;;;5063915;28;20193;-69
2022/05/28 03:49:27;;;;;;;1.60;1.50;;;20.80;74.10;;;;;;5065265;28;20183;-68
2022/05/28 03:51:53;;;;;;;1.52;1.42;;;20.80;74.10;;;;;;5062458;28;20194;-69
2022/05/28 03:54:20;;;;;;;1.52;1.42;;;20.80;73.80;;;;;;5065820;28;20957;-68
2022/05/28 03:56:47;;;;;;;1.73;1.73;;;20.90;73.80;;;;;;5066845;28;20290;-68
2022/05/28 03:59:13;;;;;;;1.23;1.23;;;20.90;73.90;;;;;;5066106;28;20183;-69
2022/05/28 04:01:39;;;;;;;2.55;1.70;;;20.90;74.10;;;;;;5068345;28;20675;-68
2022/05/28 04:04:05;;;;;;;1.90;1.83;;;21.00;74.30;;;;;;5070090;28;20183;-69
2022/05/28 04:06:34;;;;;;;1.58;1.48;;;21.00;74.10;;;;;;5067517;28;20184;-68
2022/05/28 04:09:00;;;;;;;4.25;2.03;;;21.10;74.10;;;;;;5067843;28;20684;-68
2022/05/28 04:11:25;;;;;;;2.05;1.95;;;21.10;74.10;;;;;;5068588;28;20185;-68
2022/05/28 04:13:51;;;;;;;7.68;1.92;;;;;;;;;;5064065;28;20190;-69
2022/05/28 04:16:17;;;;;;;5.10;1.60;;;21.20;73.60;;;;;;5072870;28;20194;-69
2022/05/28 04:18:43;;;;;;;1.80;1.75;;;;;;;;;;5069672;28;20199;-69
2022/05/28 04:21:10;;;;;;;6.28;2.20;;;21.30;73.70;;;;;;5068569;28;20221;-69
2022/05/28 04:23:35;;;;;;;4.50;2.10;;;21.40;73.70;;;;;;5071773;28;20186;-69
2022/05/28 04:26:01;;;;;;;2.10;1.92;;;;;;;;;;5071093;28;20175;-68
2022/05/28 04:28:28;;;;;;;2.45;1.70;;;21.40;74.60;;;;;;5071239;28;20179;-68
2022/05/28 04:30:54;;;;;;;1.88;1.67;;;;;;;;;;5068534;28;20195;-69
2022/05/28 04:33:20;;;;;;;2.08;1.73;;;;;;;;;;5067507;28;20185;-69
2022/05/28 04:35:46;;;;;;;2.33;1.85;;;;;;;;;;5066710;28;20613;-69
2022/05/28 04:38:11;;;;;;;3.63;1.40;;;21.30;73.80;;;;;;5065843;28;20263;-68
2022/05/28 04:40:37;;;;;;;7.13;1.83;;;21.20;73.80;;;;;;5071661;28;20911;-69
2022/05/28 04:43:03;;;;;;;1.77;1.55;;;;;;;;;;5071516;28;20183;-68
2022/05/28 04:45:29;;;;;;;2.17;2.05;;;;;;;;;;5067402;28;20183;-70
2022/05/28 04:47:55;;;;;;;1.52;1.33;;;21.00;73.80;;;;;;5074624;28;20191;-69
2022/05/28 04:50:21;;;;;;;1.85;1.55;;;21.00;73.80;;;;;;5070526;28;20191;-70
2022/05/28 04:52:47;;;;;;;1.80;1.80;;;;;;;;;;5069458;28;20661;-71
2022/05/28 04:55:13;;;;;;;3.25;2.40;;;21.00;74.90;;;;;;5068454;28;20187;-70
2022/05/28 04:57:39;;;;;;;3.50;2.03;;;21.00;75.20;;;;;;5069516;28;20187;-70
2022/05/28 05:00:15;;;;;;;1.52;1.50;;;21.00;74.80;;;;;;5064535;28;20769;-71
2022/05/28 05:02:41;;;;;;;2.25;1.95;;;;;;;;;;5063470;28;20174;-71
2022/05/28 05:05:08;;;;;;;1.88;1.63;;;20.90;74.60;;;;;;5069924;28;20182;-69
2022/05/28 05:07:34;;;;;;;2.25;1.65;;;20.90;75.10;;;;;;5071645;28;20171;-71
2022/05/28 05:10:00;;;;;;;5.95;1.90;;;;;;;;;;5068648;28;21048;-70
2022/05/28 05:12:26;;;;;;;2.97;2.22;;;;;;;;;;5071604;28;20193;-72
2022/05/28 05:14:52;;;;;;;2.47;1.95;;;;;;;;;;5068519;28;20687;-70
2022/05/28 05:17:18;;;;;;;8.30;2.58;;;;;;;;;;5067104;28;20182;-69
2022/05/28 05:19:44;;;;;;;4.05;2.35;;;20.40;77.20;;;;;;5070508;28;20413;-70
2022/05/28 05:22:10;;;;;;;2.80;2.15;;;;;;;;;;5072011;28;21114;-70
2022/05/28 05:24:35;;;;;;;2.35;2.25;;;20.30;77.70;;;;;;5062748;28;20186;-71
2022/05/28 05:27:02;;;;;;;1.75;1.75;;;20.30;78.60;;;;;;5070989;28;20251;-71
2022/05/28 05:29:28;;;;;;;4.80;2.42;;;20.20;78.60;;;;;;5067118;28;20212;-69
2022/05/28 05:31:54;;;;;;;2.92;2.17;;;20.20;78.50;;;;;;5067574;28;20197;-71
2022/05/28 05:34:20;;;;;;;2.50;2.35;;;20.10;78.70;;;;;;5072195;28;20187;-68
2022/05/28 05:36:46;;;;;;;4.55;2.20;;;20.10;78.30;;;;;;5072009;28;21097;-70
2022/05/28 05:39:11;;;;;;;1.58;1.48;;;20.10;78.10;;;;;;5071445;28;20178;-70
2022/05/28 05:41:39;;;;;;;4.57;2.22;;;20.10;78.10;;;;;;5066732;28;20191;-71
2022/05/28 05:44:05;;;;;;;1.85;1.75;;;20.10;77.60;;;;;;5070155;28;20190;-70
2022/05/28 05:46:31;;;;;;;6.03;2.20;;;20.30;78.60;;;;;;5069036;28;20213;-71
2022/05/28 05:48:56;;;;;;;4.32;1.55;;;20.40;77.80;;;;;;5073789;28;20210;-69
2022/05/28 05:51:22;;;;;;;4.97;1.70;;;20.50;78.60;;;;;;5069360;28;20233;-71
2022/05/28 05:53:48;;;;;;;1.92;1.73;;;20.70;79.20;;;;;;5072696;28;20731;-71
2022/05/28 05:56:13;;;;;;;1.70;1.60;;;20.80;78.50;;;;;;5064489;28;20214;-71
2022/05/28 05:58:39;;;;;;;1.50;1.50;;;21.00;77.80;;;;;;5071456;28;20223;-70
2022/05/28 06:01:05;;;;;;;2.35;1.50;;;21.20;77.60;;;;;;5067000;28;20211;-69
2022/05/28 06:03:32;;;;;;;2.00;1.67;;;21.20;77.40;;;;;;5074265;28;20190;-70
2022/05/28 06:06:00;;;;;;;1.55;1.55;;;21.30;77.20;;;;;;5055945;28;20179;-69
2022/05/28 06:08:26;;;;;;;4.82;2.10;;;21.40;77.00;;;;;;5069330;28;20190;-71
2022/05/28 06:10:52;;;;;;;4.78;2.45;;;21.50;77.10;;;;;;5067521;28;20184;-70
2022/05/28 06:13:18;;;;;;;5.13;1.73;;;21.50;78.80;;;;;;5075841;28;20519;-71
2022/05/28 06:15:45;;;;;;;2.53;2.33;;;21.60;77.60;;;;;;5066583;28;20218;-71
2022/05/28 06:18:13;;;;;;;6.13;2.70;;;21.50;77.90;;;;;;5091154;28;20739;-71
2022/05/28 06:20:39;;;;;;;2.65;2.55;;;21.60;78.00;;;;;;5068564;28;20228;-69
2022/05/28 06:23:04;;;;;;;2.72;2.53;;;21.60;77.40;;;;;;5062175;28;20203;-70
2022/05/28 06:25:30;;;;;;;2.60;2.40;;;21.60;78.80;;;;;;5068977;28;20191;-71
2022/05/28 06:27:57;;;;;;;2.85;2.50;;;21.60;79.50;;;;;;5070626;28;20236;-70
2022/05/28 06:30:22;;;;;;;4.05;2.20;;;21.70;78.70;;;;;;5069467;28;20602;-69
2022/05/28 06:32:48;;;;;;;2.40;2.30;;;21.70;78.10;;;;;;5069156;28;20186;-71
2022/05/28 06:35:14;;;;;;;3.25;2.40;;;21.80;77.80;;;;;;5067210;28;20623;-71
2022/05/28 06:37:40;;;;;;;2.42;2.33;;;21.90;79.00;;;;;;5072560;28;20175;-70
2022/05/28 06:40:07;;;;;;;2.38;2.28;;;21.90;77.30;;;;;;5068922;28;20206;-72
2022/05/28 06:42:34;;;;;;;4.43;2.17;;;21.90;77.30;;;;;;5063856;28;20263;-71
2022/05/28 06:45:00;;;;;;;3.10;2.17;;;22.00;77.10;;;;;;5065910;28;20183;-69
2022/05/28 06:47:26;;;;;;;4.35;2.67;;;22.10;77.10;;;;;;5060196;28;20524;-71
2022/05/28 06:52:36;;;;;;;4.82;3.10;;;22.30;78.40;;;;;;5065277;28;20193;-71
2022/05/28 06:55:04;;;;;;;3.83;2.38;;;22.40;78.50;;;;;;5068488;28;20191;-71
2022/05/28 06:57:30;;;;;;;2.53;2.42;;;22.50;77.70;;;;;;5070389;28;20587;-71
2022/05/28 06:59:58;;;;;;;4.18;2.45;;;22.50;77.30;;;;;;5068038;28;20306;-70
2022/05/28 07:02:24;;;;;;;6.25;2.95;;;22.60;78.30;;;;;;5066348;28;20625;-70
2022/05/28 07:04:49;;;;;;;2.75;2.55;;;22.70;77.70;;;;;;5066997;28;20189;-72
2022/05/28 07:07:15;;;;;;;2.60;2.38;;;22.70;77.30;;;;;;5065912;28;20189;-73
2022/05/28 07:09:42;;;;;;;2.92;2.75;;;22.70;75.80;;;;;;5068607;28;20638;-71
2022/05/28 07:12:08;;;;;;;2.35;2.33;;;22.90;76.40;;;;;;5060263;28;20245;-71
2022/05/28 07:14:34;;;;;;;2.65;2.45;;;23.00;76.30;;;;;;5067992;28;20202;-71
2022/05/28 07:17:00;;;;;;;2.53;2.42;;;23.10;75.70;;;;;;5070820;28;20186;-72
2022/05/28 07:19:25;;;;;;;3.53;2.75;;;23.10;75.20;;;;;;5070035;28;20210;-73
2022/05/28 07:21:51;;;;;;;2.55;2.28;;;23.20;74.10;;;;;;5070773;28;20651;-71
2022/05/28 07:24:17;;;;;;;2.28;2.05;;;23.30;74.30;;;;;;5062288;28;20186;-71
2022/05/28 07:26:42;;;;;;;1.85;1.65;;;23.50;74.50;;;;;;5070212;28;20200;-71
2022/05/28 07:29:09;;;;;;;3.38;2.22;;;23.50;73.70;;;;;;5067331;28;20180;-72
2022/05/28 07:31:35;;;;;;;2.10;1.90;;;23.60;73.90;;;;;;5066825;28;20187;-72
2022/05/28 07:34:01;;;;;;;2.17;2.00;;;23.70;73.10;;;;;;5067307;28;20183;-72
2022/05/28 07:36:27;;;;;;;1.80;1.58;;;23.80;73.40;;;;;;5061604;28;20184;-72
2022/05/28 07:38:53;;;;;;;1.95;1.75;;;23.90;72.20;;;;;;5068187;28;20202;-73
2022/05/28 07:41:25;;;;;;;1.67;1.67;;;24.00;72.00;;;;;;5065706;28;20207;-73
2022/05/28 07:43:52;;;;;;;6.32;1.95;;;24.10;72.50;;;;;;5053333;28;20187;-73
2022/05/28 07:46:24;;;;;;;2.50;1.85;;;24.20;72.50;;;;;;5058134;28;20175;-72
2022/05/28 07:48:52;;;;;;;3.35;1.98;;;24.30;72.50;;;;;;5064356;28;20226;-71
2022/05/28 07:51:18;;;;;;;2.25;2.15;;;24.40;72.30;;;;;;5063251;28;20210;-72
2022/05/28 07:53:44;;;;;;;5.15;2.35;;;24.50;71.80;;;;;;5067112;28;20195;-74
2022/05/28 07:56:10;;;;;;;3.75;2.40;;;24.80;71.60;;;;;;5075301;28;20179;-74
2022/05/28 07:58:36;;;;;;;2.45;2.35;;;24.80;71.60;;;;;;5065863;28;20189;-72
2022/05/28 08:01:04;;;;;;;5.53;2.35;;;24.90;71.70;;;;;;5065741;28;20215;-74
2022/05/28 08:03:29;;;;;;;2.40;2.30;;;25.00;72.00;;;;;;5050417;28;20183;-72
2022/05/28 08:05:56;;;;;;;3.00;2.80;;;25.20;71.90;;;;;;5066063;28;20190;-74
2022/05/28 08:08:24;;;;;;;2.45;2.25;;;25.30;71.70;;;;;;5071591;28;20543;-74
2022/05/28 08:10:51;;;;;;;2.63;2.38;;;25.50;71.50;;;;;;5068676;28;20182;-75
2022/05/28 08:13:20;;;;;;;3.92;2.28;;;25.70;71.00;;;;;;5060932;28;20194;-72
2022/05/28 08:15:47;;;;;;;4.50;2.38;;;25.90;70.70;;;;;;5069776;28;20229;-72
2022/05/28 08:18:17;;;;;;;2.30;2.10;;;26.00;70.70;;;;;;5072478;28;20633;-71
2022/05/28 08:23:28;;;;;;;4.80;2.20;;;26.40;70.40;;;;;;5063760;28;20521;-73
2022/05/28 08:25:53;;;;;;;8.02;2.20;;;26.60;69.50;;;;;;5067555;28;20182;-73
2022/05/28 08:28:20;;;;;;;3.67;1.98;;;26.90;68.80;;;;;;5068553;28;20339;-69
2022/05/28 08:30:47;;;;;;;4.80;1.80;;;26.90;68.00;;;;;;5066738;28;20182;-69
2022/05/28 08:33:16;;;;;;;6.03;2.05;;;27.10;67.90;;;;;;5069299;28;20596;-71
2022/05/28 08:35:43;;;;;;;5.10;1.85;;;27.20;67.70;;;;;;5068819;28;20315;-70
2022/05/28 08:38:14;;;;;;;2.88;1.92;;;27.30;67.00;;;;;;5067929;28;20209;-70
2022/05/28 08:40:48;;;;;;;2.25;1.50;;;27.40;66.50;;;;;;5064724;28;20202;-71
2022/05/28 08:43:16;;;;;;;2.55;2.00;;;27.60;66.10;;;;;;5066249;28;20240;-71
2022/05/28 08:45:46;;;;;;;2.90;1.73;;;27.70;66.10;;;;;;5065966;28;20732;-71
2022/05/28 08:48:17;;;;;;;3.70;1.83;;;27.80;66.20;;;;;;5068461;28;20191;-72
2022/05/28 08:50:53;;;;;;;3.40;1.90;;;27.90;64.60;;;;;;5067382;28;20578;-74
2022/05/28 08:53:25;;;;;;;2.08;1.92;;;28.00;64.10;;;;;;5066268;28;20186;-74
2022/05/28 08:55:53;;;;;;;3.35;1.95;;;28.00;64.50;;;;;;5069094;28;20179;-72
2022/05/28 08:58:23;;;;;;;3.30;1.83;;;28.00;65.20;;;;;;5059168;28;20267;-71
2022/05/28 09:00:58;;;;;;;4.93;2.03;;;28.10;65.60;;;;;;5067798;28;20217;-71
2022/05/28 09:03:54;;;;;;;3.10;2.45;;;28.20;65.00;;;;;;5067777;28;20198;-71
2022/05/28 09:06:26;;;;;;;6.00;2.08;;;28.30;65.30;;;;;;5039254;28;20192;-72
2022/05/28 09:08:54;;;;;;;2.65;1.92;;;28.50;64.30;;;;;;5038628;28;20782;-72
2022/05/28 09:11:57;;;;;;;2.00;1.70;;;28.50;63.10;;;;;;5026697;28;20298;-71
2022/05/28 09:14:25;;;;;;;6.28;2.25;;;28.60;63.90;;;;;;5036703;28;20203;-70
2022/05/28 09:17:04;;;;;;;4.68;2.33;;;28.70;64.90;;;;;;5037985;28;20275;-71
2022/05/28 09:19:39;;;;;;;5.18;2.42;;;28.80;64.50;;;;;;5038256;28;20208;-71
2022/05/28 09:22:04;;;;;;;3.97;2.05;;;28.90;63.60;;;;;;5038988;28;20186;-71
2022/05/28 09:24:33;;;;;;;5.50;2.20;;;29.00;63.70;;;;;;5037267;28;20318;-71
2022/05/28 09:27:01;;;;;;;2.55;2.38;;;29.10;63.20;;;;;;5019339;28;20275;-71
2022/05/28 09:29:45;;;;;;;4.78;2.60;;;29.20;62.80;;;;;;5036159;28;20282;-71
2022/05/28 09:32:46;;;;;;;3.92;2.20;;;29.40;63.40;;;;;;5036904;28;20203;-71
2022/05/28 09:35:14;;;;;;;2.47;2.10;;;29.60;62.70;;;;;;5037034;28;20591;-70
2022/05/28 09:37:52;;;;;;;5.10;2.28;;;29.70;62.30;;;;;;5035492;28;20681;-71
2022/05/28 09:40:26;;;;;;;3.97;2.20;;;29.90;62.10;;;;;;5034777;28;20215;-70
2022/05/28 09:43:26;;;;;;;2.63;2.00;;;30.00;61.50;;;;;;5043492;28;21090;-69
2022/05/28 09:46:08;;;;;;;5.07;2.08;;;30.10;61.50;;;;;;5069431;28;20205;-69
2022/05/28 09:48:33;;;;;;;7.05;2.33;;;30.30;61.60;;;;;;5066928;28;20183;-70
2022/05/28 09:50:59;;;;;;;2.97;2.03;;;30.50;61.10;;;;;;5067566;28;20193;-70
2022/05/28 09:56:25;;;;;;;5.28;1.95;;;30.70;61.00;;;;;;5065523;28;20218;-71
2022/05/28 09:58:52;;;;;;;3.58;2.13;;;30.90;60.50;;;;;;5065050;28;20267;-71
2022/05/28 10:01:26;;;;;;;3.10;2.35;;;31.00;61.60;;;;;;5064546;28;20248;-71
2022/05/28 10:06:49;;;;;;;2.92;2.03;;;31.20;60.70;;;;;;5070661;28;21767;-70
2022/05/28 10:09:19;;;;;;;7.43;2.55;;;31.40;60.40;;;;;;5064871;28;20233;-71
2022/05/28 10:11:55;;;;;;;6.05;2.33;;;31.40;60.20;;;;;;5069896;28;20226;-69
2022/05/28 10:14:22;;;;;;;3.72;2.47;;;31.30;60.40;;;;;;5067455;28;20229;-70
2022/05/28 10:16:49;;;;;;;3.33;2.30;;;31.40;60.20;;;;;;5062880;28;20262;-71
2022/05/28 10:19:19;;;;;;;6.32;2.78;;;31.50;60.30;;;;;;5062685;28;20253;-70
2022/05/28 10:21:57;;;;;;;5.63;2.70;;;31.40;59.80;;;;;;5067085;28;20198;-71
2022/05/28 10:24:25;;;;;;;6.88;2.60;;;31.40;60.00;;;;;;5070761;28;20189;-70
2022/05/28 10:27:01;;;;;;;4.32;2.78;;;31.50;59.40;;;;;;5068210;28;20190;-71
2022/05/28 10:29:38;;;;;;;6.47;2.70;;;31.50;59.50;;;;;;5069102;28;20193;-69
2022/05/28 10:32:17;;;;;;;2.78;2.58;;;31.70;59.50;;;;;;5064514;28;20640;-71
2022/05/28 10:34:44;;;;;;;2.80;2.60;;;31.90;58.90;;;;;;5064095;28;20859;-70
2022/05/28 10:37:19;;;;;;;3.53;2.53;;;31.90;58.40;;;;;;5068160;28;20715;-71
2022/05/28 10:39:47;;;;;;;2.50;2.40;;;32.00;59.80;;;;;;5063969;28;20707;-71
2022/05/28 10:42:16;;;;;;;3.85;2.83;;;32.00;59.30;;;;;;5068272;28;20931;-71
2022/05/28 10:44:43;;;;;;;2.85;2.65;;;32.10;59.50;;;;;;5067627;28;20539;-71
2022/05/28 10:47:21;;;;;;;7.78;3.42;;;32.10;59.70;;;;;;5063792;28;20188;-71
2022/05/28 10:50:09;;;;;;;4.53;2.83;;;32.20;59.50;;;;;;5054664;28;20659;-71
2022/05/28 10:52:56;;;;;;;3.15;2.88;;;32.30;57.80;;;;;;5065271;28;20194;-71
2022/05/28 10:55:36;;;;;;;3.08;2.88;;;32.60;57.90;;;;;;5063036;28;20201;-71
2022/05/28 10:58:32;;;;;;;8.73;3.08;;;32.90;58.30;;;;;;5060087;28;20247;-71
2022/05/28 11:01:57;;;;;;;5.68;3.10;;;33.30;58.20;;;;;;5057255;28;20220;-70
2022/05/28 11:04:48;;;;;;;4.03;2.92;;;33.70;56.50;;;;;;5018092;28;20191;-71
2022/05/28 11:07:14;;;;;;;6.07;3.20;;;34.00;56.50;;;;;;5020058;28;20942;-71
2022/05/28 11:09:51;;;;;;;3.25;2.95;;;34.40;55.50;;;;;;5024193;28;20271;-71
2022/05/28 11:12:36;;;;;;;7.28;2.40;;;34.80;54.20;;;;;;5023726;28;20204;-70
2022/05/28 11:15:07;;;;;;;3.08;2.40;;;34.60;53.20;;;;;;5027428;28;20337;-71
2022/05/28 11:18:01;;;;;;;7.65;2.67;;;34.40;55.50;;;;;;5016089;28;20184;-71
2022/05/28 11:20:34;;;;;;;5.70;2.85;;;34.20;55.00;;;;;;5022420;28;20256;-71
2022/05/28 11:23:18;;;;;;;4.97;3.00;;;34.00;55.70;;;;;;5021889;28;20644;-71
2022/05/28 11:25:59;;;;;;;3.30;2.95;;;33.80;56.40;;;;;;5024529;28;20200;-70
2022/05/28 11:28:41;;;;;;;4.38;2.88;;;33.60;56.10;;;;;;5025804;28;20194;-71
2022/05/28 11:31:30;;;;;;;5.65;2.60;;;33.40;56.90;;;;;;5024171;28;20192;-69
2022/05/28 11:34:01;;;;;;;5.45;2.97;;;33.10;56.40;;;;;;5031324;28;20246;-71
2022/05/28 11:36:36;;;;;;;5.40;3.05;;;32.90;55.80;;;;;;5022252;28;20184;-69
2022/05/28 11:39:24;;;;;;;3.55;2.83;;;32.70;56.80;;;;;;5060491;28;20632;-71
2022/05/28 11:42:01;;;;;;;11.70;2.92;;;32.50;57.20;;;;;;5069993;28;20517;-70
2022/05/28 11:44:35;;;;;;;7.40;2.58;;;32.30;58.10;;;;;;5068018;28;20182;-69
2022/05/28 11:47:25;;;;;;;3.47;2.22;;;32.20;57.80;;;;;;5068129;28;20225;-69
2022/05/28 11:53:28;;;;;;;4.32;2.58;;;31.50;58.50;;;;;;5067471;28;20185;-70
2022/05/28 11:56:00;;;;;;;5.07;2.72;;;31.10;58.60;;;;;;5069833;28;20193;-70
2022/05/28 11:58:32;;;;;;;3.08;2.65;;;30.80;59.00;;;;;;5067345;28;20190;-69
2022/05/28 12:01:01;;;;;;;4.70;2.35;;;30.70;60.30;;;;;;5061725;28;20210;-69
2022/05/28 12:03:29;;;;;;;7.75;2.85;;;30.70;59.70;;;;;;5067910;28;20648;-70
2022/05/28 12:06:08;;;;;;;3.45;3.17;;;30.40;60.10;;;;;;5067094;28;20183;-70
2022/05/28 12:09:02;;;;;;;5.75;3.13;;;30.10;60.90;;;;;;5069147;28;20584;-71
2022/05/28 12:11:37;;;;;;;2.33;2.10;;;29.90;60.20;;;;;;5090164;28;20652;-71
2022/05/28 12:14:28;;;;;;;3.80;2.97;;;29.70;59.60;;;;;;5068416;28;20217;-69
2022/05/28 12:17:08;;;;;;;4.13;3.08;;;29.50;60.50;;;;;;5007325;28;20200;-70
2022/05/28 12:19:43;;;;;;;2.70;2.50;;;29.30;60.70;;;;;;5008792;28;20200;-70
2022/05/28 12:22:26;;;;;;;5.50;2.55;;;29.10;61.70;;;;;;5008788;28;20196;-70
2022/05/28 12:25:06;;;;;;;7.53;2.30;;;28.70;62.30;;;;;;5003786;28;20925;-69
2022/05/28 12:27:55;;;;;;;8.85;2.80;;;28.30;63.70;;;;;;5008345;28;20228;-70
2022/05/28 12:30:41;;;;;;;6.95;2.53;;;28.00;64.50;;;;;;4974934;28;20205;-69
2022/05/28 12:33:23;;;;;;;5.50;2.85;;;27.80;65.00;;;;;;4970928;28;20204;-70
2022/05/28 12:36:06;;;;;;;5.78;2.75;;;27.50;66.20;;;;;;4968982;28;20229;-70
2022/05/28 12:38:43;;;;;;;4.90;3.13;;;27.30;66.20;;;;;;4971311;28;20246;-69
2022/05/28 12:41:21;;;;;;;4.30;2.72;;;27.10;66.90;;;;;;4971379;28;20636;-70
2022/05/28 12:43:57;;;;;;;7.15;2.90;;;26.80;67.80;;;;;;4971236;28;20276;-71
2022/05/28 12:46:50;;;;;;;3.10;2.70;;;26.60;69.30;;;;;;4967609;28;20671;-70
2022/05/28 12:49:21;;;;;;;5.18;2.88;;;26.30;71.00;;;;;;4973644;28;20622;-70
2022/05/28 12:52:08;;;;;;;6.22;3.17;;;26.00;71.00;;;;;;4973333;28;20193;-70
2022/05/28 12:54:37;;;;;;;3.75;2.42;;;25.90;71.20;;;;;;5005003;28;20199;-70
2022/05/28 12:57:13;;;;;;;3.30;3.00;;;25.70;73.50;;;;;;5030802;28;20196;-69
2022/05/28 12:59:43;;;;;;;3.65;2.75;;;25.60;73.50;;;;;;5031506;28;20207;-70
2022/05/28 13:02:28;;;;;;;2.90;2.80;;;25.50;74.20;;;;;;5030546;28;20200;-70
2022/05/28 13:05:22;;;;;;;3.03;2.80;;;25.30;74.50;;;;;;5025251;28;20196;-69
2022/05/28 13:07:59;;;;;;;3.00;2.80;;;25.10;75.80;;;;;;5048582;28;20245;-72
2022/05/28 13:10:28;;;;;;;3.95;3.50;;;25.00;76.00;;;;;;5065224;28;20833;-70
2022/05/28 13:13:02;;;;;;;3.35;3.13;;;24.80;75.10;;;;;;5061110;28;20175;-73
2022/05/28 13:15:46;;;;;;;5.47;2.63;;;24.70;76.70;;;;;;5062951;28;20514;-73
2022/05/28 13:18:24;;;;;;;3.80;3.00;;;24.70;77.20;;;;;;5064513;28;20638;-72
2022/05/28 13:20:53;;;;;;;6.68;2.95;;;24.50;76.10;;;;;;5057430;28;20214;-75
2022/05/28 13:23:45;;;;;;;3.15;2.70;;;24.40;76.00;;;;;;5068985;28;20178;-71
2022/05/28 13:26:46;;;;;;;5.40;2.72;;;24.30;77.00;;;;;;5063350;28;20180;-70
2022/05/28 13:29:30;;;;;;;5.95;3.42;;;24.20;74.90;;;;;;5071709;28;20553;-71
2022/05/28 13:32:09;;;;;;;5.70;3.42;;;24.20;76.40;;;;;;5068228;28;20182;-72